createdAt,value
2018-11-14T00:01:27.497Z,17.86
2018-11-14T00:03:55.178Z,17.87
2018-11-14T00:06:23.131Z,17.87
2018-11-14T00:08:51.113Z,17.90
2018-11-14T00:11:18.833Z,17.90
2018-11-14T00:13:46.487Z,17.90
2018-11-14T00:16:14.188Z,17.90
2018-11-14T00:18:41.791Z,17.89
2018-11-14T00:21:09.549Z,17.91
2018-11-14T00:23:37.219Z,17.91
2018-11-14T00:26:05.718Z,17.89
2018-11-14T00:28:33.320Z,17.85
2018-11-14T00:31:01.051Z,17.86
2018-11-14T00:33:28.685Z,17.87
2018-11-14T00:35:56.286Z,17.86
2018-11-14T00:38:24.116Z,17.88
2018-11-14T00:40:51.789Z,17.87
2018-11-14T00:43:19.568Z,17.87
2018-11-14T00:45:47.238Z,17.86
2018-11-14T00:48:14.869Z,17.86
2018-11-14T00:50:43.457Z,17.88
2018-11-14T00:53:11.575Z,17.88
2018-11-14T00:55:40.011Z,17.91
2018-11-14T00:58:08.270Z,17.92
2018-11-14T01:00:35.905Z,17.91
2018-11-14T01:03:04.332Z,17.93
2018-11-14T01:05:32.146Z,17.94
2018-11-14T01:07:59.779Z,17.92
2018-11-14T01:10:27.837Z,17.92
2018-11-14T01:12:55.521Z,17.90
2018-11-14T01:15:23.652Z,17.90
2018-11-14T01:17:51.300Z,17.89
2018-11-14T01:20:20.594Z,17.90
2018-11-14T01:22:48.321Z,17.91
2018-11-14T01:25:16.823Z,17.93
2018-11-14T01:27:45.465Z,17.94
2018-11-14T01:30:19.318Z,17.93
2018-11-14T01:32:48.006Z,17.92
2018-11-14T01:35:16.801Z,17.93
2018-11-14T01:37:44.497Z,18.00
2018-11-14T01:40:14.673Z,18.04
2018-11-14T01:42:42.817Z,18.07
2018-11-14T01:45:10.925Z,18.10
2018-11-14T01:47:38.610Z,18.12
2018-11-14T01:50:07.593Z,18.07
2018-11-14T01:52:35.250Z,17.99
2018-11-14T01:55:02.833Z,17.92
2018-11-14T01:57:30.450Z,17.88
2018-11-14T01:59:58.067Z,17.83
2018-11-14T02:02:25.705Z,17.80
2018-11-14T02:04:53.349Z,17.81
2018-11-14T02:07:21.426Z,17.83
2018-11-14T02:09:49.344Z,17.81
2018-11-14T02:12:17.013Z,17.79
2018-11-14T02:14:44.629Z,17.78
2018-11-14T02:17:12.288Z,17.78
2018-11-14T02:19:39.948Z,17.78
2018-11-14T02:22:07.847Z,17.78
2018-11-14T02:24:35.466Z,17.75
2018-11-14T02:27:03.075Z,17.76
2018-11-14T02:29:30.727Z,17.75
2018-11-14T02:31:58.320Z,17.72
2018-11-14T02:34:26.022Z,17.71
2018-11-14T02:36:53.979Z,17.70
2018-11-14T02:39:21.632Z,17.69
2018-11-14T02:41:49.289Z,17.68
2018-11-14T02:44:16.881Z,17.69
2018-11-14T02:46:44.601Z,17.68
2018-11-14T02:49:12.297Z,17.70
2018-11-14T02:51:39.884Z,17.66
2018-11-14T02:54:07.492Z,17.64
2018-11-14T02:56:35.146Z,17.65
2018-11-14T02:59:02.791Z,17.65
2018-11-14T03:01:30.630Z,17.67
2018-11-14T03:03:58.211Z,17.65
2018-11-14T03:06:25.812Z,17.63
2018-11-14T03:08:53.485Z,17.61
2018-11-14T03:11:21.116Z,17.62
2018-11-14T03:13:48.769Z,17.63
2018-11-14T03:16:16.436Z,17.64
2018-11-14T03:18:44.047Z,17.62
2018-11-14T03:21:11.717Z,17.61
2018-11-14T03:23:39.319Z,17.60
2018-11-14T03:26:06.945Z,17.62
2018-11-14T03:28:34.559Z,17.62
2018-11-14T03:31:02.241Z,17.61
2018-11-14T03:33:29.856Z,17.58
2018-11-14T03:36:03.104Z,17.61
2018-11-14T03:38:30.757Z,17.61
2018-11-14T03:40:58.377Z,17.60
2018-11-14T03:43:25.991Z,17.59
2018-11-14T03:45:53.613Z,17.57
2018-11-14T03:48:21.280Z,17.58
2018-11-14T03:50:48.949Z,17.60
2018-11-14T03:53:16.605Z,17.57
2018-11-14T03:55:44.253Z,17.57
2018-11-14T03:58:11.959Z,17.56
2018-11-14T04:00:39.601Z,17.54
2018-11-14T04:03:07.246Z,17.56
2018-11-14T04:05:34.976Z,17.56
2018-11-14T04:08:02.542Z,17.58
2018-11-14T04:10:30.188Z,17.55
2018-11-14T04:12:57.825Z,17.52
2018-11-14T04:15:25.497Z,17.52
2018-11-14T04:17:53.136Z,17.53
2018-11-14T04:20:20.725Z,17.53
2018-11-14T04:22:48.360Z,17.54
2018-11-14T04:25:19.487Z,17.51
2018-11-14T04:27:47.794Z,17.52
2018-11-14T04:30:17.240Z,17.51
2018-11-14T04:32:44.921Z,17.51
2018-11-14T04:35:13.868Z,17.50
2018-11-14T04:37:41.504Z,17.48
2018-11-14T04:40:11.840Z,17.51
2018-11-14T04:42:39.692Z,17.52
2018-11-14T04:45:09.432Z,17.51
2018-11-14T04:47:43.945Z,17.53
2018-11-14T04:50:15.044Z,17.52
2018-11-14T04:52:43.594Z,17.51
2018-11-14T04:55:13.152Z,17.54
2018-11-14T04:57:41.560Z,17.53
2018-11-14T05:00:10.920Z,17.54
2018-11-14T05:02:39.728Z,17.52
2018-11-14T05:05:09.588Z,17.52
2018-11-14T05:07:37.464Z,17.52
2018-11-14T05:10:06.819Z,17.54
2018-11-14T05:12:34.476Z,17.56
2018-11-14T05:15:02.146Z,17.55
2018-11-14T05:17:29.784Z,17.55
2018-11-14T05:19:57.456Z,17.55
2018-11-14T05:22:25.033Z,17.55
2018-11-14T05:24:52.658Z,17.56
2018-11-14T05:27:20.287Z,17.58
2018-11-14T05:29:47.944Z,17.58
2018-11-14T05:32:15.519Z,17.58
2018-11-14T05:34:43.195Z,17.56
2018-11-14T05:37:10.769Z,17.59
2018-11-14T05:39:38.641Z,17.58
2018-11-14T05:42:06.268Z,17.63
2018-11-14T05:44:33.944Z,17.65
2018-11-14T05:47:02.710Z,17.61
2018-11-14T05:49:30.489Z,17.61
2018-11-14T05:51:58.196Z,17.62
2018-11-14T05:54:25.934Z,17.61
2018-11-14T05:56:54.469Z,17.62
2018-11-14T05:59:22.428Z,17.61
2018-11-14T06:01:50.106Z,17.60
2018-11-14T06:04:17.718Z,17.60
2018-11-14T06:06:45.377Z,17.62
2018-11-14T06:09:13.998Z,17.64
2018-11-14T06:11:41.906Z,17.64
2018-11-14T06:14:09.592Z,17.64
2018-11-14T06:16:37.260Z,17.62
2018-11-14T06:19:05.425Z,17.64
2018-11-14T06:21:34.099Z,17.62
2018-11-14T06:24:01.726Z,17.62
2018-11-14T06:26:29.335Z,17.61
2018-11-14T06:28:57.006Z,17.62
2018-11-14T06:31:24.641Z,17.63
2018-11-14T06:33:52.258Z,17.62
2018-11-14T06:36:19.949Z,17.61
2018-11-14T06:38:47.592Z,17.61
2018-11-14T06:41:15.220Z,17.65
2018-11-14T06:43:42.963Z,17.65
2018-11-14T06:46:10.600Z,17.67
2018-11-14T06:48:38.293Z,17.68
2018-11-14T06:51:05.933Z,17.70
2018-11-14T06:53:33.551Z,17.70
2018-11-14T06:56:01.211Z,17.72
2018-11-14T06:58:28.863Z,17.72
2018-11-14T07:00:56.538Z,17.74
2018-11-14T07:03:24.146Z,17.78
2018-11-14T07:05:51.977Z,17.78
2018-11-14T07:08:19.538Z,17.78
2018-11-14T07:10:47.238Z,17.77
2018-11-14T07:13:14.916Z,17.76
2018-11-14T07:15:42.816Z,17.76
2018-11-14T07:18:11.152Z,17.76
2018-11-14T07:20:40.783Z,17.79
2018-11-14T07:23:08.634Z,17.79
2018-11-14T07:25:36.475Z,17.77
2018-11-14T07:28:04.598Z,17.80
2018-11-14T07:30:33.241Z,17.81
2018-11-14T07:33:03.463Z,17.83
2018-11-14T07:35:32.385Z,17.88
2018-11-14T07:38:50.766Z,17.85
2018-11-14T07:41:23.757Z,17.81
2018-11-14T07:43:51.630Z,17.81
2018-11-14T07:46:19.862Z,17.78
2018-11-14T07:48:48.624Z,17.75
2018-11-14T07:51:16.521Z,17.76
2018-11-14T07:53:44.578Z,17.77
2018-11-14T07:56:12.531Z,17.79
2018-11-14T07:58:42.382Z,17.79
2018-11-14T08:01:10.267Z,17.80
2018-11-14T08:03:38.227Z,17.77
2018-11-14T08:06:06.262Z,17.77
2018-11-14T08:08:34.338Z,17.76
2018-11-14T08:11:02.350Z,17.76
2018-11-14T08:13:31.251Z,17.77
2018-11-14T08:16:00.012Z,17.76
2018-11-14T08:18:27.868Z,17.76
2018-11-14T08:20:56.366Z,17.76
2018-11-14T08:23:24.370Z,17.78
2018-11-14T08:25:52.369Z,17.79
2018-11-14T08:28:20.267Z,17.78
2018-11-14T08:30:48.331Z,17.80
2018-11-14T08:33:16.268Z,17.81
2018-11-14T08:35:44.197Z,17.80
2018-11-14T08:38:13.133Z,17.84
2018-11-14T08:40:41.023Z,17.85
2018-11-14T08:43:09.184Z,17.85
2018-11-14T08:45:37.375Z,17.85
2018-11-14T08:48:05.768Z,17.87
2018-11-14T08:50:33.682Z,17.87
2018-11-14T08:53:01.771Z,17.87
2018-11-14T08:55:29.656Z,17.86
2018-11-14T08:58:00.632Z,17.87
2018-11-14T09:00:29.159Z,17.87
2018-11-14T09:02:57.074Z,17.89
2018-11-14T09:05:25.077Z,17.89
2018-11-14T09:07:53.257Z,17.89
2018-11-14T09:10:25.361Z,17.87
2018-11-14T09:12:53.501Z,17.87
2018-11-14T09:15:22.629Z,17.86
2018-11-14T09:17:50.501Z,17.88
2018-11-14T09:20:19.861Z,17.91
2018-11-14T09:22:47.610Z,17.89
2018-11-14T09:25:19.140Z,17.88
2018-11-14T09:27:47.023Z,17.90
2018-11-14T09:30:18.147Z,17.90
2018-11-14T09:32:46.042Z,17.90
2018-11-14T09:35:15.074Z,17.91
2018-11-14T09:37:43.209Z,17.93
2018-11-14T09:40:12.554Z,17.93
2018-11-14T09:42:40.832Z,17.93
2018-11-14T09:45:11.578Z,17.92
2018-11-14T09:47:39.411Z,17.92
2018-11-14T09:50:12.841Z,17.92
2018-11-14T09:52:40.686Z,17.92
2018-11-14T09:55:09.387Z,17.93
2018-11-14T09:57:39.292Z,17.95
2018-11-14T10:00:14.331Z,17.96
2018-11-14T10:02:42.805Z,17.99
2018-11-14T10:05:13.405Z,17.98
2018-11-14T10:10:10.062Z,18.02
2018-11-14T10:12:38.111Z,18.03
2018-11-14T10:15:08.111Z,18.04
2018-11-14T10:17:36.123Z,18.03
2018-11-14T10:20:04.359Z,18.00
2018-11-14T10:22:32.080Z,18.00
2018-11-14T10:25:00.323Z,18.02
2018-11-14T10:27:28.133Z,18.00
2018-11-14T10:29:56.252Z,18.00
2018-11-14T10:32:24.412Z,17.99
2018-11-14T10:34:52.422Z,18.00
2018-11-14T10:37:20.242Z,18.03
2018-11-14T10:39:48.490Z,18.02
2018-11-14T10:42:16.527Z,18.02
2018-11-14T10:44:44.756Z,18.02
2018-11-14T10:47:12.665Z,18.02
2018-11-14T10:49:40.588Z,18.03
2018-11-14T10:52:08.580Z,18.04
2018-11-14T10:54:36.519Z,18.06
2018-11-14T10:57:04.429Z,18.07
2018-11-14T10:59:32.368Z,18.08
2018-11-14T11:02:05.531Z,18.07
2018-11-14T11:04:38.820Z,18.07
2018-11-14T11:07:12.013Z,18.06
2018-11-14T11:09:45.205Z,18.06
2018-11-14T11:12:18.396Z,18.10
2018-11-14T11:14:51.709Z,18.16
2018-11-14T11:17:24.853Z,18.21
2018-11-14T11:19:52.596Z,18.21
2018-11-14T11:22:20.542Z,18.20
2018-11-14T11:24:48.757Z,18.18
2018-11-14T11:27:16.505Z,18.19
2018-11-14T11:29:44.218Z,18.21
2018-11-14T11:32:12.066Z,18.22
2018-11-14T11:34:39.622Z,18.22
2018-11-14T11:37:07.304Z,18.23
2018-11-14T11:39:34.976Z,18.25
2018-11-14T11:42:02.888Z,18.26
2018-11-14T11:44:32.553Z,18.29
2018-11-14T11:47:00.131Z,18.32
2018-11-14T11:49:28.068Z,18.33
2018-11-14T11:51:58.584Z,18.34
2018-11-14T11:54:26.666Z,18.40
2018-11-14T11:56:54.473Z,18.42
2018-11-14T11:59:22.503Z,18.41
2018-11-14T12:01:50.586Z,18.44
2018-11-14T12:04:18.454Z,18.45
2018-11-14T12:06:46.512Z,18.47
2018-11-14T12:09:14.481Z,18.46
2018-11-14T12:11:42.512Z,18.44
2018-11-14T12:14:10.637Z,18.42
2018-11-14T12:16:38.474Z,18.43
2018-11-14T12:19:06.452Z,18.42
2018-11-14T12:21:34.280Z,18.42
2018-11-14T12:24:02.152Z,18.41
2018-11-14T12:26:30.009Z,18.42
2018-11-14T12:28:57.862Z,18.42
2018-11-14T12:31:25.791Z,18.44
2018-11-14T12:33:53.661Z,18.46
2018-11-14T12:36:21.620Z,18.49
2018-11-14T12:38:49.528Z,18.49
2018-11-14T12:41:17.392Z,18.50
2018-11-14T12:43:45.274Z,18.51
2018-11-14T12:46:13.081Z,18.52
2018-11-14T12:48:41.059Z,18.50
2018-11-14T12:51:08.961Z,18.50
2018-11-14T12:53:36.922Z,18.52
2018-11-14T12:56:04.772Z,18.52
2018-11-14T12:58:33.004Z,18.51
2018-11-14T13:01:00.863Z,18.54
2018-11-14T13:03:28.711Z,18.55
2018-11-14T13:05:56.458Z,18.55
2018-11-14T13:08:24.308Z,18.56
2018-11-14T13:10:52.102Z,18.56
2018-11-14T13:13:19.987Z,18.56
2018-11-14T13:15:47.856Z,18.57
2018-11-14T13:18:15.684Z,18.57
2018-11-14T13:20:43.584Z,18.60
2018-11-14T13:23:11.476Z,18.61
2018-11-14T13:25:39.431Z,18.60
2018-11-14T13:28:07.404Z,18.58
2018-11-14T13:30:35.293Z,18.57
2018-11-14T13:33:03.222Z,18.55
2018-11-14T13:35:31.106Z,18.54
2018-11-14T13:37:58.855Z,18.52
2018-11-14T13:40:26.741Z,18.50
2018-11-14T13:42:54.805Z,18.50
2018-11-14T13:45:22.925Z,18.49
2018-11-14T13:47:50.975Z,18.47
2018-11-14T13:50:20.629Z,18.45
2018-11-14T13:52:48.733Z,18.44
2018-11-14T13:55:17.806Z,18.43
2018-11-14T13:57:47.056Z,18.44
2018-11-14T14:00:16.467Z,18.44
2018-11-14T14:02:44.864Z,18.44
2018-11-14T14:05:14.062Z,18.44
2018-11-14T14:07:41.977Z,18.45
2018-11-14T14:10:11.326Z,18.46
2018-11-14T14:12:39.736Z,18.43
2018-11-14T14:15:10.292Z,18.42
2018-11-14T14:17:38.308Z,18.42
2018-11-14T14:20:07.498Z,18.42
2018-11-14T14:22:35.720Z,18.42
2018-11-14T14:25:04.001Z,18.42
2018-11-14T14:27:32.069Z,18.42
2018-11-14T14:30:00.007Z,18.39
2018-11-14T14:32:27.657Z,18.38
2018-11-14T14:34:55.307Z,18.38
2018-11-14T14:37:22.909Z,18.37
2018-11-14T14:39:50.522Z,18.37
2018-11-14T14:42:18.220Z,18.37
2018-11-14T14:44:45.841Z,18.36
2018-11-14T14:47:13.482Z,18.34
2018-11-14T14:49:41.196Z,18.32
2018-11-14T14:52:08.846Z,18.31
2018-11-14T14:54:36.471Z,18.32
2018-11-14T14:57:04.395Z,18.33
2018-11-14T14:59:32.033Z,18.31
2018-11-14T15:01:59.709Z,18.31
2018-11-14T15:04:27.409Z,18.31
2018-11-14T15:06:55.025Z,18.30
2018-11-14T15:09:22.748Z,18.28
2018-11-14T15:11:50.365Z,18.26
2018-11-14T15:14:18.036Z,18.26
2018-11-14T15:16:45.798Z,18.26
2018-11-14T15:19:13.418Z,18.26
2018-11-14T15:21:41.068Z,18.27
2018-11-14T15:24:08.736Z,18.25
2018-11-14T15:26:36.424Z,18.26
2018-11-14T15:29:04.150Z,18.29
2018-11-14T15:31:31.700Z,18.30
2018-11-14T15:33:59.400Z,18.29
2018-11-14T15:36:27.021Z,18.25
2018-11-14T15:38:54.674Z,18.23
2018-11-14T15:41:22.289Z,18.23
2018-11-14T15:43:49.947Z,18.24
2018-11-14T15:46:17.583Z,18.24
2018-11-14T15:48:45.194Z,18.23
2018-11-14T15:51:12.860Z,18.23
2018-11-14T15:53:40.618Z,18.24
2018-11-14T15:56:08.318Z,18.22
2018-11-14T15:58:36.051Z,18.20
2018-11-14T16:01:04.401Z,18.20
2018-11-14T16:03:32.037Z,18.20
2018-11-14T16:05:59.716Z,18.20
2018-11-14T16:08:27.330Z,18.21
2018-11-14T16:10:54.996Z,18.18
2018-11-14T16:13:22.623Z,18.18
2018-11-14T16:15:50.242Z,18.19
2018-11-14T16:18:17.853Z,18.18
2018-11-14T16:20:45.493Z,18.17
2018-11-14T16:23:13.134Z,18.18
2018-11-14T16:25:40.771Z,18.18
2018-11-14T16:28:08.381Z,18.17
2018-11-14T16:30:36.933Z,18.16
2018-11-14T16:33:05.852Z,18.15
2018-11-14T16:35:33.618Z,18.15
2018-11-14T16:38:01.299Z,18.15
2018-11-14T16:40:32.317Z,18.16
2018-11-14T16:43:01.201Z,18.15
2018-11-14T16:45:28.784Z,18.15
2018-11-14T16:47:56.597Z,18.15
2018-11-14T16:50:24.562Z,18.17
2018-11-14T16:52:52.233Z,18.15
2018-11-14T16:55:20.642Z,18.14
2018-11-14T16:57:49.069Z,18.16
2018-11-14T17:00:21.927Z,18.16
2018-11-14T17:02:49.568Z,18.15
2018-11-14T17:05:17.510Z,18.15
2018-11-14T17:07:45.153Z,18.17
2018-11-14T17:10:13.937Z,18.19
2018-11-14T17:12:42.204Z,18.18
2018-11-14T17:15:11.634Z,18.17
2018-11-14T17:17:39.248Z,18.16
2018-11-14T17:20:07.285Z,18.15
2018-11-14T17:22:34.951Z,18.15
2018-11-14T17:25:02.582Z,18.14
2018-11-14T17:27:30.188Z,18.15
2018-11-14T17:29:57.916Z,18.15
2018-11-14T17:32:25.648Z,18.15
2018-11-14T17:34:53.422Z,18.14
2018-11-14T17:37:21.089Z,18.13
2018-11-14T17:39:48.726Z,18.12
2018-11-14T17:42:16.434Z,18.13
2018-11-14T17:44:44.057Z,18.12
2018-11-14T17:47:11.661Z,18.12
2018-11-14T17:49:39.329Z,18.12
2018-11-14T17:52:06.937Z,18.13
2018-11-14T17:54:34.560Z,18.13
2018-11-14T17:57:02.174Z,18.12
2018-11-14T17:59:29.816Z,18.10
2018-11-14T18:01:57.482Z,18.10
2018-11-14T18:04:25.067Z,18.13
2018-11-14T18:06:52.739Z,18.12
2018-11-14T18:09:20.343Z,18.11
2018-11-14T18:11:48.018Z,18.12
2018-11-14T18:14:15.635Z,18.11
2018-11-14T18:16:43.228Z,18.11
2018-11-14T18:19:10.896Z,18.12
2018-11-14T18:21:38.520Z,18.12
2018-11-14T18:24:07.144Z,18.10
2018-11-14T18:26:34.735Z,18.11
2018-11-14T18:29:02.385Z,18.11
2018-11-14T18:31:30.076Z,18.10
2018-11-14T18:33:57.724Z,18.11
2018-11-14T18:36:25.413Z,18.09
2018-11-14T18:38:52.990Z,18.10
2018-11-14T18:41:20.600Z,18.13
2018-11-14T18:43:48.318Z,18.10
2018-11-14T18:46:15.988Z,18.11
2018-11-14T18:48:43.604Z,18.10
2018-11-14T18:51:11.276Z,18.10
2018-11-14T18:53:38.926Z,18.09
2018-11-14T18:56:06.593Z,18.09
2018-11-14T18:58:34.272Z,18.09
2018-11-14T19:01:01.903Z,18.09
2018-11-14T19:03:29.656Z,18.07
2018-11-14T19:05:57.276Z,18.08
2018-11-14T19:08:24.918Z,18.12
2018-11-14T19:10:52.618Z,18.21
2018-11-14T19:13:20.638Z,18.22
2018-11-14T19:15:48.267Z,18.21
2018-11-14T19:18:18.953Z,18.20
2018-11-14T19:20:46.757Z,18.18
2018-11-14T19:23:14.528Z,18.19
2018-11-14T19:25:42.130Z,18.19
2018-11-14T19:28:09.715Z,18.20
2018-11-14T19:30:38.115Z,18.20
2018-11-14T19:33:05.732Z,18.21
2018-11-14T19:35:33.367Z,18.20
2018-11-14T19:38:01.351Z,18.21
2018-11-14T19:40:31.244Z,18.24
2018-11-14T19:43:00.335Z,18.25
2018-11-14T19:45:29.604Z,18.25
2018-11-14T19:47:57.232Z,18.26
2018-11-14T19:50:25.237Z,18.26
2018-11-14T19:52:53.182Z,18.26
2018-11-14T19:55:22.110Z,18.30
2018-11-14T19:57:51.045Z,18.28
2018-11-14T20:00:25.458Z,18.30
2018-11-14T20:02:53.102Z,18.30
2018-11-14T20:05:21.096Z,18.31
2018-11-14T20:07:48.752Z,18.32
2018-11-14T20:10:17.833Z,18.32
2018-11-14T20:12:46.128Z,18.30
2018-11-14T20:15:15.237Z,18.30
2018-11-14T20:17:43.886Z,18.32
2018-11-14T20:20:15.109Z,18.31
2018-11-14T20:22:43.634Z,18.31
2018-11-14T20:25:11.272Z,18.30
2018-11-14T20:27:39.566Z,18.31
2018-11-14T20:30:12.784Z,18.32
2018-11-14T20:32:40.592Z,18.29
2018-11-14T20:35:08.893Z,18.30
2018-11-14T20:37:36.678Z,18.30
2018-11-14T20:40:05.592Z,18.32
2018-11-14T20:42:33.215Z,18.32
2018-11-14T20:45:00.873Z,18.30
2018-11-14T20:47:28.521Z,18.29
2018-11-14T20:49:56.159Z,18.30
2018-11-14T20:52:23.824Z,18.29
2018-11-14T20:54:51.474Z,18.30
2018-11-14T20:57:19.062Z,18.29
2018-11-14T20:59:46.711Z,18.28
2018-11-14T21:02:14.386Z,18.29
2018-11-14T21:04:42.013Z,18.33
2018-11-14T21:07:09.629Z,18.36
2018-11-14T21:09:37.267Z,18.36
2018-11-14T21:12:04.953Z,18.33
2018-11-14T21:14:32.621Z,18.33
2018-11-14T21:17:00.351Z,18.31
2018-11-14T21:19:28.021Z,18.30
2018-11-14T21:21:55.761Z,18.30
2018-11-14T21:24:23.387Z,18.31
2018-11-14T21:26:51.033Z,18.34
2018-11-14T21:29:18.786Z,18.33
2018-11-14T21:31:46.412Z,18.33
2018-11-14T21:34:14.061Z,18.32
2018-11-14T21:36:41.775Z,18.31
2018-11-14T21:39:11.806Z,18.32
2018-11-14T21:41:39.404Z,18.29
2018-11-14T21:44:07.169Z,18.29
2018-11-14T21:46:34.941Z,18.31
2018-11-14T21:49:03.547Z,18.31
2018-11-14T21:51:31.144Z,18.31
2018-11-14T21:53:58.864Z,18.31
2018-11-14T21:56:26.505Z,18.30
2018-11-14T21:58:54.096Z,18.25
2018-11-14T22:01:21.771Z,18.27
2018-11-14T22:03:49.363Z,18.27
2018-11-14T22:06:17.127Z,18.27
2018-11-14T22:08:44.913Z,18.26
2018-11-14T22:11:12.553Z,18.27
2018-11-14T22:13:40.348Z,18.27
2018-11-14T22:16:07.935Z,18.24
2018-11-14T22:18:35.532Z,18.23
2018-11-14T22:21:03.359Z,18.21
2018-11-14T22:23:30.965Z,18.22
2018-11-14T22:25:58.627Z,18.21
2018-11-14T22:28:26.434Z,18.22
2018-11-14T22:30:54.005Z,18.21
2018-11-14T22:33:21.645Z,18.19
2018-11-14T22:35:49.275Z,18.19
2018-11-14T22:38:16.955Z,18.19
2018-11-14T22:40:44.566Z,18.18
2018-11-14T22:43:12.200Z,18.18
2018-11-14T22:45:39.887Z,18.19
2018-11-14T22:48:07.494Z,18.18
2018-11-14T22:50:35.145Z,18.18
2018-11-14T22:53:02.741Z,18.18
2018-11-14T22:55:30.378Z,18.15
2018-11-14T22:57:57.993Z,18.14
2018-11-14T23:00:47.023Z,18.10
2018-11-14T23:03:14.653Z,18.13
2018-11-14T23:05:42.266Z,18.12
2018-11-14T23:08:09.903Z,18.11
2018-11-14T23:10:37.533Z,18.12
2018-11-14T23:13:05.320Z,18.13
2018-11-14T23:15:32.974Z,18.11
2018-11-14T23:18:00.607Z,18.12
2018-11-14T23:23:09.838Z,18.09
2018-11-14T23:25:37.512Z,18.08
2018-11-14T23:28:05.214Z,18.08
2018-11-14T23:30:33.001Z,18.06
2018-11-14T23:33:00.663Z,18.06
2018-11-14T23:35:29.576Z,18.07
2018-11-14T23:38:01.463Z,18.06
2018-11-14T23:40:29.239Z,18.07
2018-11-14T23:42:56.970Z,18.07
2018-11-14T23:45:25.486Z,18.04
2018-11-14T23:47:53.155Z,18.05
2018-11-14T23:50:22.987Z,18.05
2018-11-14T23:52:51.744Z,18.04
2018-11-14T23:55:20.094Z,18.06
2018-11-14T23:57:47.790Z,18.04
